メインページ
METAR-TAF:

METAR-TAF

空港 :

コフスハーバー, オーストラリア

緯度: 30-19-12S, 経度: 153-07-00E, 海抜: 5m

現時点の気象観測

当レポートは22分前の05:00(UTC)に作成
南/南西の風 15kt
気温 17°C
湿度 63%
気圧 1023 hPa
視程10km以上
高度6400ftの雲は散在している

METAR: YCFS 200500Z AUTO 21015KT 9999 // SCT064 17/10 Q1023

時間: 15:22 (05:22 UTC)

予報

当レポートは5時間57分前の23:25(UTC)に作成
予報は20日の 00時(UTC)から 20日の 24時(UTC)まで有効
南西の風 14kt
視程10km以上
高度2500ftの雲は散在している
高度5000ftの千切れ雲あり
弱いにわか雨
20日の 00時(UTC)から 20日の 01時(UTC)まで徐々に
南/南西の風 17kt、最大27ktの突風を伴う
視程10km以上
高度3000ftの雲は散在している
高度6000ftの千切れ雲あり
弱いにわか雨
20日の 1000時(UTC)から
南西の風 10kt
視程10km以上
高度3000ftの雲は散在している
弱いにわか雨
20日の 2200時(UTC)から
南/南西の風 10kt
視程10km以上
高度3000ftの雲は散在している
弱いにわか雨

TAF: YCFS 192325Z 2000/2024 23014KT 9999 -SHRA SCT025 BKN050 BECMG 2000/2001 20017G27KT 9999 -SHRA SCT030 BKN060 FM201000 23010KT 9999 -SHRA SCT030 FM202200 20010KT 9999 -SHRA SCT030

4,000以上の空港の気象観測と天気予報(METAR報とTAF報)

利用可能な観測所は地図上に黄色い丸と赤い丸で示す。

丸の上にカーソルを重ねると観測所名を参照できる。

次にクリックすると気象観測と天気予報を参照できる。

マップの切り替え:黒色「×」印の緑ボタンをクリックして拡大、「-」印の緑ボタンをクリックして縮小、緑色の三角印をクリックして隣りの地図に切り替え


METAR-TAF: